Contact Us:
Email: info@sawbill.com
Phone: (218)663-7150
Fax: (218)663-7980
Mail: 4620 Sawbill Trail
Box 2129
Tofte, MN 55615


Powered by
Movable Type 3.15
 
Sawbill Weather History Archives: September 2010
Current Sawbill Weather History | « August 2010 | October 2010 »


Date

High
Temperature

Low
Temperature

Barometric
Pressure

Relative
Humidity 7AM

9 AM
Temperature

Moisture

Snow

9/30/10 57 38 29.94 87% 40 0
9/29/10 57 38 30.01 98% 49 .42"
9/28/10 52 44 30.01 98% 46 .02"
9/27/10 59 36 29.98 93% 45 .11"
9/26/10 58 31 30.33 86% 36 0
9/25/10 54 31 30.18 78% 31 0
9/24/10 49 40 30.74 89% 41 .37"
9/23/10 51 46 30.03 98% 49 .57"
9/22/10 58 45 30.50 96% 46 .09"
9/21/10 56 45 30.62 85% 46 0
9/20/10 56 34 30.18 87% 54 0
9/19/10 55 34 30.29 82% 34 0
9/18/10 52 37 30.77 87% 40 0
9/17/10 59 37 30.62 67% 37 0
9/16/10 53 41 30.45 98% 48 .12"
9/15/10 48 36 30.59 91% 43 .12"
9/14/10 56 35 30.68 80% 36 0
9/13/10 53 41 30.65 90% 42 0
9/12/10 62 46 30.47 75% 46 .02"
9/11/10 58 50 30.36 84% 50 .08"
9/10/10 58 45 30.30 98% 51 .84"
9/9/10 57 39 30.41 98% 39 0
9/8/10 52 39 30.68 89% 40 0
9/7/10 51 42 30.32 98% 39 .03"
9/6/10 65 39 30.00 98% 47 .95"
9/5/10 61 39 30.33 76% 39 0
9/4/10 55 41 30.39 86% 41 0
9/3/10 55 44 30.36 88% 44 .48"
9/2/10 64 53 29.97 98% 54 .73"
9/1/10 69 52 30.33 81% 57 0
 


Home I Trip Planning I Rentals and Outfitting I Reservations I Campgrounds I Sawbill Store I Sawbill News I Contact

© 1997 - 2017, Sawbill Canoe Outfitters, Inc. I Privacy Policy